Time;durP1;ratioP1;P1;durP2;ratioP2;P2;SDS_P1;SDS_P2;PMS_P1;PMS_P2;Temp;Humidity;BMP_temperature;BMP_pressure;BME280_temperature;BME280_humidity;BME280_pressure;Samples;Min_cycle;Max_cycle;Signal;HPM_P1;HPM_P2
2022/07/03 00:00:18;;;;;;;;;;;;;;;16.30;98.39;98631.35;1689362;85;21926;-88
2022/07/03 00:02:45;;;;;;;;;;;;;;;16.33;98.18;98631.58;1689349;85;20168;-87
2022/07/03 00:05:11;;;;;;;;;;;;;;;16.35;97.58;98625.23;1686431;84;20205;-88
2022/07/03 00:07:38;;;;;;;;;;;;;;;16.32;97.28;98621.76;1689682;85;20286;-83
2022/07/03 00:10:04;;;;;;;;;;;;;;;16.31;98.24;98620.11;1686242;84;20203;-87
2022/07/03 00:12:30;;;;;;;;;;;;;;;16.33;96.03;98619.27;1689778;83;21967;-87
2022/07/03 00:14:56;;;;;;;;;;;;;;;16.27;98.22;98614.20;1689600;85;20248;-82
2022/07/03 00:17:22;;;;;;;;;;;;;;;16.28;97.74;98609.78;1689684;83;20227;-83
2022/07/03 00:19:48;;;;;;;;;;;;;;;16.30;97.54;98615.75;1689918;85;20176;-87
2022/07/03 00:22:14;;;;;;;;;;;;;;;16.33;97.86;98611.06;1689638;83;20217;-87
2022/07/03 00:24:48;;;;;;;;;;;;;;;16.35;97.26;98602.00;1689302;84;21019;-88
2022/07/03 00:27:12;;;;;;;;;;;;;;;16.35;98.07;98599.27;1688987;83;20160;-83
2022/07/03 00:29:41;;;;;;;;;;;;;;;16.38;97.10;98588.27;1689790;84;20480;-82
2022/07/03 00:32:09;;;;;;;;;;;;;;;16.38;98.31;98590.19;1688511;85;20503;-88
2022/07/03 00:34:35;;;;;;;;;;;;;;;16.40;98.15;98590.13;1689181;84;20182;-88
2022/07/03 00:37:03;;;;;;;;;;;;;;;16.41;97.38;98589.58;1688689;84;21058;-87
2022/07/03 00:39:29;;;;;;;;;;;;;;;16.40;97.27;98585.22;1686356;85;20220;-82
2022/07/03 00:42:02;;;;;;;;;;;;;;;16.36;96.91;98585.84;1689696;83;20272;-88
2022/07/03 00:44:28;;;;;;;;;;;;;;;16.34;97.79;98581.23;1689597;85;20631;-83
2022/07/03 00:46:54;;;;;;;;;;;;;;;16.32;98.22;98580.73;1688996;83;20618;-83
2022/07/03 00:49:20;;;;;;;;;;;;;;;16.35;96.54;98578.75;1689976;84;21938;-87
2022/07/03 00:51:46;;;;;;;;;;;;;;;16.33;96.95;98578.81;1689606;85;20745;-83
2022/07/03 00:54:11;;;;;;;;;;;;;;;16.30;98.51;98572.00;1689872;85;20205;-88
2022/07/03 00:56:38;;;;;;;;;;;;;;;16.33;97.49;98571.98;1663891;85;20235;-82
2022/07/03 00:59:04;;;;;;;;;;;;;;;16.35;97.65;98566.44;1689809;84;20168;-83
2022/07/03 01:01:32;;;;;;;;;;;;;;;16.34;99.12;98561.28;1672281;85;21102;-83
2022/07/03 01:04:01;;;;;;;;;;;;;;;16.35;98.02;98565.08;1689605;83;20192;-83
2022/07/03 01:06:27;;;;;;;;;;;;;;;16.35;96.82;98571.11;1689420;84;20148;-87
2022/07/03 01:08:58;;;;;;;;;;;;;;;16.34;97.31;98566.20;1658717;85;20267;-83
2022/07/03 01:11:45;;;;;;;;;;;;;;;16.34;97.79;98563.46;1686625;84;20396;-83
2022/07/03 01:14:31;;;;;;;;;;;;;;;16.36;97.15;98563.15;1618484;88;21369;-82
2022/07/03 01:16:58;;;;;;;;;;;;;;;16.35;97.82;98561.53;1608715;88;20203;-82
2022/07/03 01:19:30;;;;;;;;;;;;;;;16.38;98.11;98561.47;1652026;84;20221;-87
2022/07/03 01:22:02;;;;;;;;;;;;;;;16.41;97.28;98561.70;1689592;83;20445;-87
2022/07/03 01:24:41;;;;;;;;;;;;;;;16.42;97.01;98570.15;1689715;84;20209;-83
2022/07/03 01:27:09;;;;;;;;;;;;;;;16.42;96.41;98566.05;1686801;85;21081;-83
2022/07/03 01:29:41;;;;;;;;;;;;;;;16.43;96.04;98560.83;1688501;84;20305;-88
2022/07/03 01:32:07;;;;;;;;;;;;;;;16.42;95.12;98556.47;1686391;83;20473;-83
2022/07/03 01:34:34;;;;;;;;;;;;;;;16.42;95.17;98559.20;1689300;85;20592;-87
2022/07/03 01:37:00;;;;;;;;;;;;;;;16.43;96.50;98551.81;1689677;84;20434;-87
2022/07/03 01:39:26;;;;;;;;;;;;;;;16.45;95.27;98552.31;1690002;85;21036;-88
2022/07/03 01:41:52;;;;;;;;;;;;;;;16.47;95.88;98542.67;1689642;83;20563;-88
2022/07/03 01:44:18;;;;;;;;;;;;;;;16.47;97.28;98545.41;1689851;84;21427;-83
2022/07/03 01:46:45;;;;;;;;;;;;;;;16.48;96.17;98543.48;1689169;84;20184;-83
2022/07/03 01:49:14;;;;;;;;;;;;;;;16.46;98.40;98546.53;1665570;84;20183;-87
2022/07/03 01:51:39;;;;;;;;;;;;;;;16.45;96.98;98542.17;1689890;83;21286;-83
2022/07/03 01:54:05;;;;;;;;;;;;;;;16.46;98.10;98535.59;1690019;85;20188;-87
2022/07/03 01:56:32;;;;;;;;;;;;;;;16.47;97.55;98537.20;1689636;85;20274;-88
2022/07/03 01:58:59;;;;;;;;;;;;;;;16.50;97.93;98535.80;1685852;85;20140;-87
2022/07/03 02:01:48;;;;;;;;;;;;;;;16.49;96.46;98536.89;1688961;84;20221;-84
2022/07/03 02:04:27;;;;;;;;;;;;;;;16.47;98.29;98529.00;1689757;85;21277;-87
2022/07/03 02:06:59;;;;;;;;;;;;;;;16.42;98.88;98526.39;1687080;85;20162;-87
2022/07/03 02:09:28;;;;;;;;;;;;;;;16.38;97.76;98519.89;1690106;85;20175;-83
2022/07/03 02:11:54;;;;;;;;;;;;;;;16.36;98.87;98521.57;1689692;85;20221;-83
2022/07/03 02:14:24;;;;;;;;;;;;;;;16.34;98.14;98527.10;1689999;85;20175;-83
2022/07/03 02:16:59;;;;;;;;;;;;;;;16.34;97.62;98525.73;1687287;83;22059;-83
2022/07/03 02:19:53;;;;;;;;;;;;;;;16.33;98.83;98528.22;1689428;84;20165;-87
2022/07/03 02:22:17;;;;;;;;;;;;;;;16.34;99.32;98531.20;1678058;85;20173;-83
2022/07/03 02:24:44;;;;;;;;;;;;;;;16.35;98.86;98534.19;1663923;84;20193;-88
2022/07/03 02:27:14;;;;;;;;;;;;;;;16.34;97.91;98533.38;1725578;82;20193;-83
2022/07/03 02:29:58;;;;;;;;;;;;;;;16.35;98.62;98537.73;1664990;85;21232;-83
2022/07/03 02:32:24;;;;;;;;;;;;;;;16.37;98.47;98536.05;1694043;84;20166;-83
2022/07/03 02:34:53;;;;;;;;;;;;;;;16.39;98.00;98529.71;1709470;84;20188;-87
2022/07/03 02:37:19;;;;;;;;;;;;;;;16.40;98.77;98541.46;1709472;83;20175;-83
2022/07/03 02:39:50;;;;;;;;;;;;;;;16.39;99.41;98538.48;1680445;85;20206;-88
2022/07/03 02:42:34;;;;;;;;;;;;;;;16.38;99.46;98529.47;1668191;84;21011;-82
2022/07/03 02:45:01;;;;;;;;;;;;;;;16.37;100.00;98531.95;1681349;84;20162;-83
2022/07/03 02:47:34;;;;;;;;;;;;;;;16.38;100.00;98530.83;1682919;85;20171;-83
2022/07/03 02:50:05;;;;;;;;;;;;;;;16.36;98.80;98527.59;1681433;85;20188;-83
2022/07/03 02:52:46;;;;;;;;;;;;;;;16.33;99.01;98522.75;1682639;85;20216;-83
2022/07/03 02:55:35;;;;;;;;;;;;;;;16.31;99.95;98518.92;1682699;85;21134;-83
2022/07/03 02:58:26;;;;;;;;;;;;;;;16.34;100.00;98520.27;1682418;85;20172;-83
2022/07/03 03:01:01;;;;;;;;;;;;;;;16.33;100.00;98515.36;1682169;85;20203;-86
2022/07/03 03:03:29;;;;;;;;;;;;;;;16.36;100.00;98511.19;1673000;84;20519;-87
2022/07/03 03:05:56;;;;;;;;;;;;;;;16.39;99.40;98513.30;1668999;85;20167;-83
2022/07/03 03:08:34;;;;;;;;;;;;;;;16.37;98.39;98522.37;1654874;86;21018;-86
2022/07/03 03:11:03;;;;;;;;;;;;;;;16.36;99.62;98520.20;1675906;85;20189;-83
2022/07/03 03:13:31;;;;;;;;;;;;;;;16.40;98.69;98525.86;1682190;84;20181;-83
2022/07/03 03:16:07;;;;;;;;;;;;;;;16.38;100.00;98516.35;1682390;85;20182;-83
2022/07/03 03:18:36;;;;;;;;;;;;;;;16.39;99.92;98520.14;1682580;84;20218;-87
2022/07/03 03:21:03;;;;;;;;;;;;;;;16.41;100.00;98516.56;1682764;84;21236;-87
2022/07/03 03:23:50;;;;;;;;;;;;;;;16.47;100.00;98516.69;1682437;84;20218;-83
2022/07/03 03:26:12;;;;;;;;;;;;;;;16.52;100.00;98518.52;1681845;84;20175;-82
2022/07/03 03:28:41;;;;;;;;;;;;;;;16.55;100.00;98520.63;1682453;84;20164;-82
2022/07/03 03:31:08;;;;;;;;;;;;;;;16.58;100.00;98507.73;1682651;84;20172;-83
2022/07/03 03:33:43;;;;;;;;;;;;;;;16.61;100.00;98507.11;1682511;85;21110;-88
2022/07/03 03:36:10;;;;;;;;;;;;;;;16.64;99.86;98501.81;1673868;85;20192;-83
2022/07/03 03:38:37;;;;;;;;;;;;;;;16.69;99.61;98500.94;1681460;84;20428;-82
2022/07/03 03:41:03;;;;;;;;;;;;;;;16.73;98.99;98500.56;1681398;85;20188;-82
2022/07/03 03:43:30;;;;;;;;;;;;;;;16.77;98.30;98504.31;1682378;85;20198;-82
2022/07/03 03:45:56;;;;;;;;;;;;;;;16.74;97.69;98500.00;1661468;85;21149;-87
2022/07/03 03:48:22;;;;;;;;;;;;;;;16.73;98.32;98503.86;1675516;84;20189;-83
2022/07/03 03:50:47;;;;;;;;;;;;;;;16.75;98.66;98505.72;1682500;84;20264;-83
2022/07/03 03:53:13;;;;;;;;;;;;;;;16.76;99.56;98505.44;1682427;84;20161;-83
2022/07/03 03:55:52;;;;;;;;;;;;;;;16.78;99.51;98503.75;1682793;84;20168;-82
2022/07/03 03:58:17;;;;;;;;;;;;;;;16.83;99.26;98509.09;1682236;84;20537;-88
2022/07/03 04:00:43;;;;;;;;;;;;;;;16.84;98.78;98512.11;1682806;85;20282;-83
2022/07/03 04:03:09;;;;;;;;;;;;;;;16.87;98.78;98510.92;1659171;85;20287;-88
2022/07/03 04:05:35;;;;;;;;;;;;;;;16.91;98.64;98509.73;1668302;85;20167;-83
2022/07/03 04:08:00;;;;;;;;;;;;;;;16.95;97.50;98508.57;1682683;85;20174;-88
2022/07/03 04:10:26;;;;;;;;;;;;;;;16.96;97.46;98512.92;1682697;85;21059;-83
2022/07/03 04:12:52;;;;;;;;;;;;;;;16.96;97.95;98515.66;1682550;84;20184;-83
2022/07/03 04:15:18;;;;;;;;;;;;;;;16.99;97.71;98518.57;1681932;85;20492;-82
2022/07/03 04:17:43;;;;;;;;;;;;;;;17.08;97.55;98520.82;1682483;85;20178;-82
2022/07/03 04:20:10;;;;;;;;;;;;;;;17.13;97.14;98516.61;1682779;85;20198;-82
2022/07/03 04:22:35;;;;;;;;;;;;;;;17.23;96.06;98508.70;1682644;84;21252;-83
2022/07/03 04:25:01;;;;;;;;;;;;;;;17.26;95.48;98505.89;1682743;85;20202;-83
2022/07/03 04:27:27;;;;;;;;;;;;;;;17.31;95.64;98512.06;1682735;85;20517;-88
2022/07/03 04:29:53;;;;;;;;;;;;;;;17.33;95.96;98515.29;1682827;85;20281;-82
2022/07/03 04:32:18;;;;;;;;;;;;;;;17.41;96.27;98503.58;1682636;84;20255;-87
2022/07/03 04:34:44;;;;;;;;;;;;;;;17.54;95.14;98503.28;1682646;85;21175;-88
2022/07/03 04:37:10;;;;;;;;;;;;;;;17.57;94.54;98506.75;1696030;83;20180;-87
2022/07/03 04:39:36;;;;;;;;;;;;;;;17.66;94.61;98510.91;1681579;85;20227;-88
2022/07/03 04:42:02;;;;;;;;;;;;;;;17.70;94.49;98497.67;1674160;85;20162;-87
2022/07/03 04:44:28;;;;;;;;;;;;;;;17.78;94.64;98498.84;1682727;85;20610;-87
2022/07/03 04:46:54;;;;;;;;;;;;;;;17.90;94.50;98493.57;1682577;84;20803;-83
2022/07/03 04:49:19;;;;;;;;;;;;;;;18.01;93.54;98489.98;1681769;85;20256;-83
2022/07/03 04:51:45;;;;;;;;;;;;;;;18.06;93.50;98482.19;1668700;85;20307;-88
2022/07/03 04:54:11;;;;;;;;;;;;;;;18.17;93.05;98478.02;1650844;85;20156;-85
2022/07/03 04:56:37;;;;;;;;;;;;;;;18.24;92.76;98473.69;1682261;85;20200;-87
2022/07/03 04:59:02;;;;;;;;;;;;;;;18.35;92.46;98470.64;1671516;85;21258;-84
2022/07/03 05:01:28;;;;;;;;;;;;;;;18.43;92.11;98468.48;1682279;85;20214;-83
2022/07/03 05:03:54;;;;;;;;;;;;;;;18.54;91.61;98466.50;1682620;84;20381;-88
2022/07/03 05:06:20;;;;;;;;;;;;;;;18.73;89.55;98469.53;1675376;85;20607;-82
2022/07/03 05:08:45;;;;;;;;;;;;;;;18.85;87.85;98469.69;1682777;85;20210;-88
2022/07/03 05:11:11;;;;;;;;;;;;;;;19.03;87.94;98467.17;1679441;85;22339;-88
2022/07/03 05:13:37;;;;;;;;;;;;;;;19.26;87.24;98461.50;1682427;85;20202;-88
2022/07/03 05:16:03;;;;;;;;;;;;;;;19.40;85.42;98462.13;1683025;85;20283;-88
2022/07/03 05:18:29;;;;;;;;;;;;;;;19.55;84.05;98460.78;1682773;85;20164;-84
2022/07/03 05:20:54;;;;;;;;;;;;;;;19.71;85.48;98462.70;1682971;85;20216;-88
2022/07/03 05:23:20;;;;;;;;;;;;;;;20.00;86.24;98463.33;1672810;84;21932;-83
2022/07/03 05:25:46;;;;;;;;;;;;;;;20.34;86.78;98462.91;1682974;84;20192;-88
2022/07/03 05:28:12;;;;;;;;;;;;;;;20.34;81.94;98462.91;1682738;84;20294;-84
2022/07/03 05:30:37;;;;;;;;;;;;;;;20.44;80.74;98465.88;1677391;85;20163;-84
2022/07/03 05:33:03;;;;;;;;;;;;;;;20.48;78.90;98463.48;1678809;85;20206;-83
2022/07/03 05:35:29;;;;;;;;;;;;;;;20.69;80.77;98459.95;1678190;85;21088;-89
2022/07/03 05:37:55;;;;;;;;;;;;;;;20.97;82.90;98463.77;1680098;84;20172;-83
2022/07/03 05:40:20;;;;;;;;;;;;;;;21.11;82.31;98466.25;1684226;85;20265;-83
2022/07/03 05:42:46;;;;;;;;;;;;;;;21.34;81.78;98468.06;1684517;84;20189;-83
2022/07/03 05:45:12;;;;;;;;;;;;;;;21.31;75.93;98465.42;1684857;85;20176;-83
2022/07/03 05:47:37;;;;;;;;;;;;;;;21.54;78.37;98472.74;1679661;82;21063;-83
2022/07/03 05:50:04;;;;;;;;;;;;;;;21.68;78.28;98469.08;1678317;81;20244;-83
2022/07/03 05:52:29;;;;;;;;;;;;;;;21.78;77.72;98461.50;1680500;84;20162;-88
2022/07/03 05:54:55;;;;;;;;;;;;;;;21.61;74.07;98470.78;1674184;85;20162;-83
2022/07/03 05:57:21;;;;;;;;;;;;;;;21.66;75.55;98467.23;1670470;85;20193;-89
2022/07/03 05:59:47;;;;;;;;;;;;;;;21.50;72.78;98466.28;1657132;85;21065;-83
2022/07/03 06:02:12;;;;;;;;;;;;;;;21.74;75.63;98470.25;1674854;85;20238;-88
2022/07/03 06:04:38;;;;;;;;;;;;;;;21.91;76.04;98472.80;1679031;85;20192;-89
2022/07/03 06:07:04;;;;;;;;;;;;;;;22.10;76.12;98470.30;1682686;84;20239;-83
2022/07/03 06:09:30;;;;;;;;;;;;;;;22.04;75.64;98468.88;1682420;84;20210;-83
2022/07/03 06:11:55;;;;;;;;;;;;;;;22.02;75.04;98468.43;1673640;85;21159;-89
2022/07/03 06:14:21;;;;;;;;;;;;;;;22.23;76.33;98465.61;1682407;85;20194;-89
2022/07/03 06:16:47;;;;;;;;;;;;;;;22.38;72.95;98462.70;1682944;85;20225;-84
2022/07/03 06:19:13;;;;;;;;;;;;;;;22.55;74.89;98461.64;1682482;85;20531;-83
2022/07/03 06:21:38;;;;;;;;;;;;;;;22.69;70.71;98464.27;1682787;85;20190;-89
2022/07/03 06:24:05;;;;;;;;;;;;;;;22.90;70.87;98466.91;1682672;85;21899;-83
2022/07/03 06:26:31;;;;;;;;;;;;;;;23.02;70.43;98463.29;1681308;85;20157;-83
2022/07/03 06:28:56;;;;;;;;;;;;;;;23.13;71.17;98463.01;1649414;85;20201;-83
2022/07/03 06:31:22;;;;;;;;;;;;;;;23.26;71.93;98459.63;1671350;85;20166;-89
2022/07/03 06:33:48;;;;;;;;;;;;;;;23.33;69.99;98462.02;1649915;85;20272;-84
2022/07/03 06:36:13;;;;;;;;;;;;;;;23.28;67.90;98457.31;1678432;85;21114;-89
2022/07/03 06:38:39;;;;;;;;;;;;;;;23.32;69.58;98461.77;1682635;85;20757;-89
2022/07/03 06:41:05;;;;;;;;;;;;;;;22.88;68.04;98454.58;1682824;85;20198;-89
2022/07/03 06:43:31;;;;;;;;;;;;;;;22.41;68.70;98454.55;1682736;84;20339;-83
2022/07/03 06:45:56;;;;;;;;;;;;;;;22.21;69.70;98454.08;1682875;84;20176;-88
2022/07/03 06:48:22;;;;;;;;;;;;;;;22.27;71.11;98448.56;1682785;84;21092;-88
2022/07/03 06:50:48;;;;;;;;;;;;;;;22.33;70.27;98447.77;1683087;84;20186;-83
2022/07/03 06:53:14;;;;;;;;;;;;;;;22.81;72.03;98439.36;1682917;85;20207;-83
2022/07/03 06:55:39;;;;;;;;;;;;;;;23.02;68.24;98446.13;1682739;85;20236;-88
2022/07/03 06:58:08;;;;;;;;;;;;;;;23.28;69.02;98440.14;1682666;84;20180;-89
2022/07/03 07:00:34;;;;;;;;;;;;;;;23.30;69.68;98441.16;1683225;85;21890;-83
2022/07/03 07:03:00;;;;;;;;;;;;;;;23.05;67.18;98438.51;1682544;85;20210;-90
2022/07/03 07:05:26;;;;;;;;;;;;;;;23.10;68.59;98426.99;1676721;85;20798;-89
2022/07/03 07:07:51;;;;;;;;;;;;;;;23.21;68.50;98432.23;1679978;83;20646;-89
2022/07/03 07:10:17;;;;;;;;;;;;;;;23.39;68.23;98436.27;1682623;85;20814;-83
2022/07/03 07:12:43;;;;;;;;;;;;;;;23.62;68.11;98426.84;1682594;85;21739;-84
2022/07/03 07:15:09;;;;;;;;;;;;;;;23.78;66.02;98426.86;1682653;85;20174;-84
2022/07/03 07:17:35;;;;;;;;;;;;;;;23.89;64.87;98420.42;1682660;84;20203;-84
2022/07/03 07:20:01;;;;;;;;;;;;;;;24.23;64.15;98418.06;1674855;85;20176;-87
2022/07/03 07:22:27;;;;;;;;;;;;;;;24.30;62.49;98414.66;1663233;85;20206;-83
2022/07/03 07:24:52;;;;;;;;;;;;;;;24.72;62.83;98414.25;1682831;85;21076;-84
2022/07/03 07:27:19;;;;;;;;;;;;;;;25.00;60.52;98411.84;1682446;85;20187;-84
2022/07/03 07:29:44;;;;;;;;;;;;;;;24.69;60.31;98408.61;1682546;85;20184;-83
2022/07/03 07:32:10;;;;;;;;;;;;;;;24.54;61.30;98401.98;1682704;84;20200;-84
2022/07/03 07:34:36;;;;;;;;;;;;;;;24.66;61.19;98405.19;1681239;84;20310;-84
2022/07/03 07:37:02;;;;;;;;;;;;;;;24.84;61.82;98396.66;1679847;85;22013;-84
2022/07/03 07:39:27;;;;;;;;;;;;;;;24.99;60.19;98399.15;1672637;85;20263;-85
2022/07/03 07:41:53;;;;;;;;;;;;;;;25.07;59.81;98397.35;1683019;85;20217;-89
2022/07/03 07:44:19;;;;;;;;;;;;;;;25.30;56.90;98395.42;1679531;85;20242;-89
2022/07/03 07:46:45;;;;;;;;;;;;;;;25.59;57.36;98394.75;1677300;85;20253;-90
2022/07/03 07:49:11;;;;;;;;;;;;;;;25.94;54.87;98393.77;1650451;85;21210;-90
2022/07/03 07:51:36;;;;;;;;;;;;;;;26.40;56.13;98386.16;1680412;85;20190;-83
2022/07/03 07:54:02;;;;;;;;;;;;;;;26.41;55.94;98388.38;1649513;86;20262;-84
2022/07/03 07:56:28;;;;;;;;;;;;;;;26.28;54.19;98389.73;1680918;85;20499;-90
2022/07/03 07:58:54;;;;;;;;;;;;;;;25.25;53.96;98381.85;1682480;85;20601;-84
2022/07/03 08:06:49;;;;;;;;;;;;;;;26.37;54.45;98378.55;1677346;84;20222;-85
2022/07/03 08:09:15;;;;;;;;;;;;;;;27.26;53.83;98379.71;1695860;84;20162;-89
2022/07/03 08:11:41;;;;;;;;;;;;;;;27.78;53.27;98377.84;1682715;85;20242;-85
2022/07/03 08:14:07;;;;;;;;;;;;;;;28.13;50.71;98372.33;1682583;85;21117;-85
2022/07/03 08:16:34;;;;;;;;;;;;;;;28.27;46.99;98368.81;1675107;85;20179;-90
2022/07/03 08:19:00;;;;;;;;;;;;;;;28.65;52.66;98367.47;1689835;85;20191;-84
2022/07/03 08:21:26;;;;;;;;;;;;;;;28.79;48.45;98365.32;1663779;84;20149;-85
2022/07/03 08:23:52;;;;;;;;;;;;;;;29.13;47.11;98355.50;1689859;83;20216;-85
2022/07/03 08:26:18;;;;;;;;;;;;;;;29.33;47.73;98362.94;1689932;84;21063;-87
2022/07/03 08:28:44;;;;;;;;;;;;;;;29.79;47.73;98362.19;1689565;83;20195;-87
2022/07/03 08:31:10;;;;;;;;;;;;;;;30.05;42.52;98358.97;1689592;84;20221;-84
2022/07/03 08:33:35;;;;;;;;;;;;;;;29.58;44.60;98367.18;1689692;85;20166;-91
2022/07/03 08:36:01;;;;;;;;;;;;;;;29.70;41.97;98360.39;1689837;85;20200;-85
2022/07/03 08:38:32;;;;;;;;;;;;;;;29.65;44.11;98358.78;1689706;83;21154;-84
2022/07/03 08:40:59;;;;;;;;;;;;;;;30.04;43.02;98354.59;1687434;84;20226;-91
2022/07/03 08:43:25;;;;;;;;;;;;;;;30.93;41.75;98356.35;1689220;85;20211;-90
2022/07/03 08:45:51;;;;;;;;;;;;;;;31.03;42.54;98361.72;1689192;84;20172;-85
2022/07/03 08:48:16;;;;;;;;;;;;;;;31.31;41.39;98353.18;1686900;84;20198;-90
2022/07/03 08:50:42;;;;;;;;;;;;;;;31.18;37.41;98356.22;1688631;85;21110;-90
2022/07/03 08:53:10;;;;;;;;;;;;;;;31.97;38.00;98351.69;1691743;79;20182;-91
2022/07/03 08:55:36;;;;;;;;;;;;;;;31.58;35.89;98351.98;1685947;84;20623;-91
2022/07/03 08:58:02;;;;;;;;;;;;;;;32.15;35.49;98347.31;1687045;85;20730;-85
2022/07/03 09:00:27;;;;;;;;;;;;;;;31.77;35.52;98341.45;1686354;85;20301;-84
2022/07/03 09:02:53;;;;;;;;;;;;;;;32.38;37.29;98342.47;1688296;85;21040;-86
2022/07/03 09:05:19;;;;;;;;;;;;;;;33.10;35.95;98341.80;1686535;84;20245;-85
2022/07/03 09:07:45;;;;;;;;;;;;;;;33.47;36.99;98344.29;1689894;83;20228;-86
2022/07/03 09:10:12;;;;;;;;;;;;;;;33.67;36.74;98341.55;1689570;84;20131;-91
2022/07/03 09:12:38;;;;;;;;;;;;;;;34.43;35.59;98341.24;1674472;84;20197;-85
2022/07/03 09:15:05;;;;;;;;;;;;;;;35.00;33.84;98332.27;1679550;84;21065;-85
2022/07/03 09:17:31;;;;;;;;;;;;;;;35.69;35.56;98345.75;1662381;84;20160;-89
2022/07/03 09:20:04;;;;;;;;;;;;;;;35.74;30.57;98341.63;1688839;85;20194;-91
2022/07/03 09:22:33;;;;;;;;;;;;;;;35.79;30.78;98341.88;1673892;85;20193;-86
2022/07/03 09:25:08;;;;;;;;;;;;;;;35.78;34.49;98344.52;1668954;84;20214;-92
2022/07/03 09:27:34;;;;;;;;;;;;;;;34.46;35.36;98341.02;1689775;84;21118;-85
2022/07/03 09:30:03;;;;;;;;;;;;;;;34.45;34.79;98341.63;1689715;84;20204;-91
2022/07/03 09:32:32;;;;;;;;;;;;;;;35.09;35.07;98333.87;1689707;83;20189;-91
2022/07/03 09:35:24;;;;;;;;;;;;;;;34.96;34.50;98331.56;1689069;84;20190;-91
2022/07/03 09:37:52;;;;;;;;;;;;;;;35.19;33.07;98333.44;1689898;83;20158;-86
2022/07/03 09:40:18;;;;;;;;;;;;;;;34.53;32.63;98328.83;1688123;85;21054;-91
2022/07/03 09:42:58;;;;;;;;;;;;;;;34.53;33.00;98326.81;1687872;85;20166;-86
2022/07/03 09:45:24;;;;;;;;;;;;;;;34.29;33.14;98329.47;1689451;84;20201;-85
2022/07/03 09:47:50;;;;;;;;;;;;;;;34.39;33.22;98329.86;1687495;85;20167;-91
2022/07/03 09:50:16;;;;;;;;;;;;;;;34.50;31.68;98326.25;1687539;85;20227;-92
2022/07/03 09:52:46;;;;;;;;;;;;;;;34.59;31.98;98325.05;1689829;83;21155;-87
2022/07/03 09:55:15;;;;;;;;;;;;;;;35.58;31.94;98329.12;1686150;84;20196;-85
2022/07/03 09:57:51;;;;;;;;;;;;;;;35.56;30.68;98323.76;1689874;84;20182;-86
2022/07/03 10:00:22;;;;;;;;;;;;;;;35.50;31.47;98324.89;1686290;85;20646;-86
2022/07/03 10:03:04;;;;;;;;;;;;;;;35.54;29.72;98322.77;1687663;85;20160;-92
2022/07/03 10:05:34;;;;;;;;;;;;;;;36.79;28.76;98318.66;1687866;85;21151;-92
2022/07/03 10:08:15;;;;;;;;;;;;;;;36.47;27.74;98317.55;1664633;84;20193;-86
2022/07/03 10:10:44;;;;;;;;;;;;;;;36.15;28.39;98324.08;1678984;84;20191;-85
2022/07/03 10:13:10;;;;;;;;;;;;;;;36.51;28.38;98324.52;1667287;85;20158;-91
2022/07/03 10:15:37;;;;;;;;;;;;;;;36.77;29.53;98311.27;1683435;84;20179;-86
2022/07/03 10:18:09;;;;;;;;;;;;;;;35.97;29.71;98319.51;1687156;85;21871;-92
2022/07/03 10:20:44;;;;;;;;;;;;;;;35.93;29.93;98307.55;1687746;85;20177;-91
2022/07/03 10:23:10;;;;;;;;;;;;;;;35.68;30.83;98308.16;1689738;83;20169;-86
2022/07/03 10:25:36;;;;;;;;;;;;;;;34.06;32.11;98310.00;1689716;84;20182;-85
2022/07/03 10:28:03;;;;;;;;;;;;;;;33.71;33.03;98306.39;1669477;85;20151;-91
2022/07/03 10:30:29;;;;;;;;;;;;;;;34.56;31.65;98302.64;1673770;84;21063;-91
2022/07/03 10:32:55;;;;;;;;;;;;;;;34.08;33.18;98303.33;1690196;84;20156;-87
2022/07/03 10:35:26;;;;;;;;;;;;;;;33.33;33.77;98297.56;1689607;85;20251;-87
2022/07/03 10:38:05;;;;;;;;;;;;;;;33.66;33.73;98301.43;1687500;85;20510;-87
2022/07/03 10:46:16;;;;;;;;;;;;;;;32.46;35.66;98296.92;1686800;85;20439;-87
2022/07/03 10:49:02;;;;;;;;;;;;;;;33.90;33.35;98291.02;1689793;84;20428;-93
2022/07/03 10:51:47;;;;;;;;;;;;;;;34.35;32.49;98289.14;1686751;84;20196;-93
2022/07/03 10:54:25;;;;;;;;;;;;;;;35.79;32.17;98288.94;1678987;84;20169;-93
2022/07/03 10:57:03;;;;;;;;;;;;;;;36.82;29.66;98277.61;1690080;84;21794;-93
2022/07/03 10:59:42;;;;;;;;;;;;;;;37.46;29.56;98278.46;1689813;84;20185;-93
2022/07/03 11:02:18;;;;;;;;;;;;;;;37.06;29.05;98271.05;1689819;84;20172;-87
2022/07/03 11:05:05;;;;;;;;;;;;;;;36.67;28.23;98277.27;1689902;84;20469;-88
2022/07/03 11:07:31;;;;;;;;;;;;;;;36.85;28.33;98269.70;1683315;85;20143;-93
2022/07/03 11:10:13;;;;;;;;;;;;;;;37.39;27.66;98273.05;1689952;85;21205;-88
2022/07/03 11:12:58;;;;;;;;;;;;;;;36.91;28.75;98265.05;1690339;84;20161;-92
2022/07/03 11:15:37;;;;;;;;;;;;;;;36.10;29.08;98269.63;1677179;84;20464;-88
2022/07/03 11:18:11;;;;;;;;;;;;;;;37.11;28.95;98258.41;1689816;83;20578;-93
2022/07/03 11:20:47;;;;;;;;;;;;;;;37.23;28.05;98260.42;1673917;84;20150;-88
2022/07/03 11:23:17;;;;;;;;;;;;;;;37.95;28.19;98263.11;1681622;83;21023;-88
2022/07/03 11:25:47;;;;;;;;;;;;;;;38.33;27.63;98258.70;1689609;85;20449;-91
2022/07/03 11:28:34;;;;;;;;;;;;;;;38.73;26.72;98264.50;1689941;85;20183;-93
2022/07/03 11:31:16;;;;;;;;;;;;;;;39.35;26.00;98265.09;1687906;84;20964;-93
2022/07/03 11:33:46;;;;;;;;;;;;;;;38.16;26.38;98278.52;1660810;85;20481;-87
2022/07/03 11:36:25;;;;;;;;;;;;;;;38.87;26.34;98267.38;1685519;84;22076;-93
2022/07/03 11:38:49;;;;;;;;;;;;;;;38.60;26.08;98264.54;1688117;83;20177;-92
2022/07/03 11:41:15;;;;;;;;;;;;;;;38.59;26.24;98260.77;1677936;85;20556;-88
2022/07/03 11:43:48;;;;;;;;;;;;;;;36.85;27.96;98262.64;1686154;84;20607;-88
2022/07/03 11:46:25;;;;;;;;;;;;;;;38.38;27.01;98256.71;1689360;85;20175;-89
2022/07/03 11:49:13;;;;;;;;;;;;;;;38.36;27.13;98263.44;1688907;85;21256;-92
2022/07/03 11:51:41;;;;;;;;;;;;;;;37.98;27.12;98260.77;1689890;84;20189;-88
2022/07/03 11:54:07;;;;;;;;;;;;;;;38.21;26.56;98261.75;1690033;84;20179;-88
2022/07/03 11:56:33;;;;;;;;;;;;;;;39.43;26.30;98256.45;1663062;84;20172;-88
2022/07/03 11:59:00;;;;;;;;;;;;;;;38.93;26.04;98254.98;1689901;85;20162;-92
2022/07/03 12:01:34;;;;;;;;;;;;;;;39.33;25.00;98253.44;1689638;85;21022;-87
2022/07/03 12:04:08;;;;;;;;;;;;;;;38.68;25.68;98255.78;1689826;84;20464;-88
2022/07/03 12:06:38;;;;;;;;;;;;;;;38.51;25.67;98258.04;1667619;83;20489;-93
2022/07/03 12:09:20;;;;;;;;;;;;;;;39.99;25.37;98251.02;1689916;85;20181;-93
2022/07/03 12:11:57;;;;;;;;;;;;;;;38.55;25.43;98251.00;1689941;83;20177;-88
2022/07/03 12:14:42;;;;;;;;;;;;;;;39.55;24.88;98244.81;1686877;84;20955;-87
2022/07/03 12:17:16;;;;;;;;;;;;;;;40.37;25.50;98239.84;1691064;83;20197;-88
2022/07/03 12:19:46;;;;;;;;;;;;;;;39.89;24.88;98237.47;1686105;84;20593;-92
2022/07/03 12:22:12;;;;;;;;;;;;;;;37.67;25.72;98238.78;1668351;83;20165;-88
2022/07/03 12:24:39;;;;;;;;;;;;;;;38.86;26.03;98233.24;1689500;84;20161;-93
2022/07/03 12:27:05;;;;;;;;;;;;;;;38.95;25.12;98230.45;1689573;83;21094;-93
2022/07/03 12:29:31;;;;;;;;;;;;;;;38.67;25.49;98228.09;1689573;84;20172;-88
2022/07/03 12:31:57;;;;;;;;;;;;;;;38.25;25.74;98229.10;1680412;85;20187;-88
2022/07/03 12:34:23;;;;;;;;;;;;;;;38.61;25.75;98232.15;1662489;84;20184;-88
2022/07/03 12:36:59;;;;;;;;;;;;;;;39.39;25.69;98231.71;1689990;83;20167;-93
2022/07/03 12:39:42;;;;;;;;;;;;;;;39.48;25.42;98228.30;1690379;85;21084;-87
2022/07/03 12:42:20;;;;;;;;;;;;;;;38.61;25.60;98229.31;1689965;83;20197;-92
2022/07/03 12:44:59;;;;;;;;;;;;;;;37.03;27.12;98225.37;1690230;83;20456;-88
2022/07/03 12:47:26;;;;;;;;;;;;;;;36.26;27.75;98236.34;1690285;83;20484;-92
2022/07/03 12:50:00;;;;;;;;;;;;;;;36.76;27.81;98231.45;1684683;85;20189;-91
2022/07/03 12:52:26;;;;;;;;;;;;;;;37.68;27.59;98226.84;1671758;83;20630;-93
2022/07/03 12:54:52;;;;;;;;;;;;;;;37.06;26.76;98224.45;1690328;84;20516;-92
2022/07/03 13:00:16;;;;;;;;;;;;;;;37.35;26.75;98224.98;1690440;83;20161;-92
2022/07/03 13:02:43;;;;;;;;;;;;;;;37.76;26.08;98216.25;1690693;83;20167;-91
2022/07/03 13:05:19;;;;;;;;;;;;;;;38.77;25.90;98214.80;1689412;85;21217;-88
2022/07/03 13:07:47;;;;;;;;;;;;;;;39.70;25.05;98214.62;1693709;84;20171;-91